sensor_id;sensor_type;location;lat;lon;timestamp;pressure;altitude;pressure_sealevel;temperature;humidity
84445;BME280;74683;48.402;10.596;2024-02-04T00:00:42;97544.91;;;5.44;82.83
84445;BME280;74683;48.402;10.596;2024-02-04T00:03:09;97549.84;;;5.42;83.07
84445;BME280;74683;48.402;10.596;2024-02-04T00:05:36;97548.22;;;5.41;82.55
84445;BME280;74683;48.402;10.596;2024-02-04T00:08:02;97528.59;;;5.39;82.46
84445;BME280;74683;48.402;10.596;2024-02-04T00:10:30;97528.88;;;5.37;82.82
84445;BME280;74683;48.402;10.596;2024-02-04T00:12:56;97529.97;;;5.36;83.47
84445;BME280;74683;48.402;10.596;2024-02-04T00:15:23;97524.53;;;5.36;83.45
84445;BME280;74683;48.402;10.596;2024-02-04T00:17:50;97524.53;;;5.36;83.09
84445;BME280;74683;48.402;10.596;2024-02-04T00:20:17;97511.19;;;5.35;82.68
84445;BME280;74683;48.402;10.596;2024-02-04T00:22:44;97517.75;;;5.34;82.44
84445;BME280;74683;48.402;10.596;2024-02-04T00:25:10;97530.88;;;5.32;82.87
84445;BME280;74683;48.402;10.596;2024-02-04T00:27:38;97522.94;;;5.30;82.78
84445;BME280;74683;48.402;10.596;2024-02-04T00:30:06;97516.97;;;5.28;83.54
84445;BME280;74683;48.402;10.596;2024-02-04T00:32:33;97514.56;;;5.27;83.30
84445;BME280;74683;48.402;10.596;2024-02-04T00:35:00;97499.88;;;5.23;82.32
84445;BME280;74683;48.402;10.596;2024-02-04T00:37:27;97502.06;;;5.21;83.31
84445;BME280;74683;48.402;10.596;2024-02-04T00:39:54;97502.66;;;5.17;83.02
84445;BME280;74683;48.402;10.596;2024-02-04T00:42:20;97504.34;;;5.13;83.15
84445;BME280;74683;48.402;10.596;2024-02-04T00:44:47;97499.44;;;5.10;83.64
84445;BME280;74683;48.402;10.596;2024-02-04T00:47:14;97502.75;;;5.07;82.46
84445;BME280;74683;48.402;10.596;2024-02-04T00:49:40;97498.47;;;5.01;82.92
84445;BME280;74683;48.402;10.596;2024-02-04T00:52:07;97496.31;;;4.98;82.89
84445;BME280;74683;48.402;10.596;2024-02-04T00:54:34;97496.38;;;4.93;82.65
84445;BME280;74683;48.402;10.596;2024-02-04T00:57:00;97484.94;;;4.91;82.79
84445;BME280;74683;48.402;10.596;2024-02-04T00:59:27;97492.31;;;4.90;83.17
84445;BME280;74683;48.402;10.596;2024-02-04T01:01:54;97492.06;;;4.87;83.57
84445;BME280;74683;48.402;10.596;2024-02-04T01:04:22;97486.91;;;4.85;82.71
84445;BME280;74683;48.402;10.596;2024-02-04T01:06:50;97489.66;;;4.85;83.27
84445;BME280;74683;48.402;10.596;2024-02-04T01:09:30;97482.28;;;4.86;82.67
84445;BME280;74683;48.402;10.596;2024-02-04T01:11:57;97480.94;;;4.83;82.72
84445;BME280;74683;48.402;10.596;2024-02-04T01:14:24;97486.41;;;4.83;82.60
84445;BME280;74683;48.402;10.596;2024-02-04T01:16:51;97487.22;;;4.84;82.66
84445;BME280;74683;48.402;10.596;2024-02-04T01:19:17;97498.03;;;4.89;81.82
84445;BME280;74683;48.402;10.596;2024-02-04T01:21:45;97497.50;;;4.92;82.10
84445;BME280;74683;48.402;10.596;2024-02-04T01:24:12;97496.09;;;4.95;81.62
84445;BME280;74683;48.402;10.596;2024-02-04T01:26:39;97500.66;;;4.99;81.24
84445;BME280;74683;48.402;10.596;2024-02-04T01:29:06;97509.34;;;5.01;82.01
84445;BME280;74683;48.402;10.596;2024-02-04T01:31:32;97508.28;;;5.02;81.69
84445;BME280;74683;48.402;10.596;2024-02-04T01:33:59;97508.00;;;5.04;81.34
84445;BME280;74683;48.402;10.596;2024-02-04T01:36:26;97509.91;;;5.03;81.15
84445;BME280;74683;48.402;10.596;2024-02-04T01:38:53;97520.00;;;5.03;80.92
84445;BME280;74683;48.402;10.596;2024-02-04T01:41:19;97520.81;;;5.03;81.16
84445;BME280;74683;48.402;10.596;2024-02-04T01:43:46;97515.34;;;5.03;81.39
84445;BME280;74683;48.402;10.596;2024-02-04T01:46:13;97513.97;;;5.06;80.68
84445;BME280;74683;48.402;10.596;2024-02-04T01:48:40;97512.28;;;5.10;81.47
84445;BME280;74683;48.402;10.596;2024-02-04T01:51:07;97516.34;;;5.12;81.14
84445;BME280;74683;48.402;10.596;2024-02-04T01:53:34;97517.69;;;5.15;80.61
84445;BME280;74683;48.402;10.596;2024-02-04T01:56:01;97503.25;;;5.14;80.89
84445;BME280;74683;48.402;10.596;2024-02-04T01:58:28;97498.91;;;5.13;80.28
84445;BME280;74683;48.402;10.596;2024-02-04T02:00:55;97481.44;;;5.14;81.08
84445;BME280;74683;48.402;10.596;2024-02-04T02:03:23;97467.81;;;5.14;80.61
84445;BME280;74683;48.402;10.596;2024-02-04T02:05:51;97458.53;;;5.15;80.86
84445;BME280;74683;48.402;10.596;2024-02-04T02:08:18;97458.81;;;5.14;80.37
84445;BME280;74683;48.402;10.596;2024-02-04T02:10:46;97443.56;;;5.13;81.16
84445;BME280;74683;48.402;10.596;2024-02-04T02:13:18;97446.31;;;5.13;80.85
84445;BME280;74683;48.402;10.596;2024-02-04T02:15:52;97449.03;;;5.13;81.08
84445;BME280;74683;48.402;10.596;2024-02-04T02:18:37;97452.56;;;5.13;80.93
84445;BME280;74683;48.402;10.596;2024-02-04T02:21:30;97461.03;;;5.12;81.03
84445;BME280;74683;48.402;10.596;2024-02-04T02:24:16;97462.94;;;5.11;80.92
84445;BME280;74683;48.402;10.596;2024-02-04T02:26:45;97474.94;;;5.10;81.02
84445;BME280;74683;48.402;10.596;2024-02-04T02:29:12;97465.09;;;5.14;81.71
84445;BME280;74683;48.402;10.596;2024-02-04T02:31:40;97467.50;;;5.16;81.70
84445;BME280;74683;48.402;10.596;2024-02-04T02:34:15;97480.34;;;5.15;80.85
84445;BME280;74683;48.402;10.596;2024-02-04T02:36:49;97491.47;;;5.19;80.52
84445;BME280;74683;48.402;10.596;2024-02-04T02:39:21;97488.72;;;5.19;81.22
84445;BME280;74683;48.402;10.596;2024-02-04T02:41:50;97478.94;;;5.18;80.88
84445;BME280;74683;48.402;10.596;2024-02-04T02:44:19;97470.75;;;5.18;81.42
84445;BME280;74683;48.402;10.596;2024-02-04T02:46:46;97477.00;;;5.18;80.92
84445;BME280;74683;48.402;10.596;2024-02-04T02:49:13;97477.00;;;5.18;80.49
84445;BME280;74683;48.402;10.596;2024-02-04T02:51:40;97490.09;;;5.22;81.01
84445;BME280;74683;48.402;10.596;2024-02-04T02:54:07;97485.44;;;5.22;81.52
84445;BME280;74683;48.402;10.596;2024-02-04T02:56:34;97490.09;;;5.22;80.76
84445;BME280;74683;48.402;10.596;2024-02-04T02:59:00;97477.53;;;5.21;81.72
84445;BME280;74683;48.402;10.596;2024-02-04T03:01:27;97489.84;;;5.18;81.07
84445;BME280;74683;48.402;10.596;2024-02-04T03:03:54;97480.34;;;5.15;81.30
84445;BME280;74683;48.402;10.596;2024-02-04T03:06:20;97482.25;;;5.15;81.05
84445;BME280;74683;48.402;10.596;2024-02-04T03:08:47;97489.09;;;5.12;81.71
84445;BME280;74683;48.402;10.596;2024-02-04T03:11:13;97492.09;;;5.11;80.95
84445;BME280;74683;48.402;10.596;2024-02-04T03:13:40;97485.00;;;5.10;81.77
84445;BME280;74683;48.402;10.596;2024-02-04T03:16:11;97489.13;;;5.07;81.65
84445;BME280;74683;48.402;10.596;2024-02-04T03:18:41;97493.47;;;5.08;81.67
84445;BME280;74683;48.402;10.596;2024-02-04T03:21:15;97477.44;;;5.07;82.15
84445;BME280;74683;48.402;10.596;2024-02-04T03:23:43;97479.34;;;5.06;81.26
84445;BME280;74683;48.402;10.596;2024-02-04T03:26:10;97474.19;;;5.05;81.75
84445;BME280;74683;48.402;10.596;2024-02-04T03:28:37;97463.88;;;5.02;81.68
84445;BME280;74683;48.402;10.596;2024-02-04T03:31:04;97470.69;;;4.99;81.52
84445;BME280;74683;48.402;10.596;2024-02-04T03:33:30;97469.59;;;5.00;82.11
84445;BME280;74683;48.402;10.596;2024-02-04T03:35:57;97466.34;;;4.98;81.30
84445;BME280;74683;48.402;10.596;2024-02-04T03:38:24;97466.63;;;4.97;81.99
84445;BME280;74683;48.402;10.596;2024-02-04T03:40:50;97462.81;;;4.98;81.95
84445;BME280;74683;48.402;10.596;2024-02-04T03:43:17;97464.72;;;4.97;82.35
84445;BME280;74683;48.402;10.596;2024-02-04T03:45:44;97466.13;;;4.95;82.12
84445;BME280;74683;48.402;10.596;2024-02-04T03:48:10;97465.31;;;4.94;81.77
84445;BME280;74683;48.402;10.596;2024-02-04T03:50:37;97464.50;;;4.94;82.19
84445;BME280;74683;48.402;10.596;2024-02-04T03:53:04;97469.13;;;4.93;81.51
84445;BME280;74683;48.402;10.596;2024-02-04T03:55:31;97472.38;;;4.95;81.58
84445;BME280;74683;48.402;10.596;2024-02-04T03:57:57;97468.56;;;4.96;81.71
84445;BME280;74683;48.402;10.596;2024-02-04T04:00:24;97473.19;;;4.96;81.05
84445;BME280;74683;48.402;10.596;2024-02-04T04:02:51;97471.28;;;4.96;81.90
84445;BME280;74683;48.402;10.596;2024-02-04T04:05:18;97468.47;;;5.01;80.97
84445;BME280;74683;48.402;10.596;2024-02-04T04:07:45;97466.59;;;5.02;80.55
84445;BME280;74683;48.402;10.596;2024-02-04T04:10:12;97471.22;;;5.01;81.37
84445;BME280;74683;48.402;10.596;2024-02-04T04:12:38;97481.03;;;5.02;80.71
84445;BME280;74683;48.402;10.596;2024-02-04T04:15:05;97474.78;;;5.02;80.59
84445;BME280;74683;48.402;10.596;2024-02-04T04:17:32;97485.13;;;5.00;80.96
84445;BME280;74683;48.402;10.596;2024-02-04T04:19:59;97483.75;;;5.02;80.37
84445;BME280;74683;48.402;10.596;2024-02-04T04:22:25;97472.31;;;5.00;80.19
84445;BME280;74683;48.402;10.596;2024-02-04T04:24:52;97478.06;;;4.99;80.82
84445;BME280;74683;48.402;10.596;2024-02-04T04:27:19;97470.97;;;4.98;81.09
84445;BME280;74683;48.402;10.596;2024-02-04T04:29:46;97469.41;;;4.92;82.53
84445;BME280;74683;48.402;10.596;2024-02-04T04:32:12;97477.34;;;4.88;81.76
84445;BME280;74683;48.402;10.596;2024-02-04T04:34:39;97464.31;;;4.85;81.64
84445;BME280;74683;48.402;10.596;2024-02-04T04:37:06;97460.53;;;4.81;82.40
84445;BME280;74683;48.402;10.596;2024-02-04T04:39:33;97468.69;;;4.81;82.42
84445;BME280;74683;48.402;10.596;2024-02-04T04:41:59;97456.47;;;4.78;81.64
84445;BME280;74683;48.402;10.596;2024-02-04T04:44:26;97455.94;;;4.76;82.63
84445;BME280;74683;48.402;10.596;2024-02-04T04:46:53;97467.13;;;4.75;82.89
84445;BME280;74683;48.402;10.596;2024-02-04T04:49:20;97465.53;;;4.74;82.52
84445;BME280;74683;48.402;10.596;2024-02-04T04:51:46;97471.25;;;4.72;82.42
84445;BME280;74683;48.402;10.596;2024-02-04T04:54:13;97478.59;;;4.72;82.00
84445;BME280;74683;48.402;10.596;2024-02-04T04:56:41;97478.84;;;4.75;82.30
84445;BME280;74683;48.402;10.596;2024-02-04T04:59:09;97488.94;;;4.75;82.67
84445;BME280;74683;48.402;10.596;2024-02-04T05:01:35;97498.22;;;4.74;82.46
84445;BME280;74683;48.402;10.596;2024-02-04T05:04:02;97497.09;;;4.75;82.23
84445;BME280;74683;48.402;10.596;2024-02-04T05:06:29;97491.38;;;4.76;83.47
84445;BME280;74683;48.402;10.596;2024-02-04T05:08:55;97496.59;;;4.73;83.72
84445;BME280;74683;48.402;10.596;2024-02-04T05:11:22;97499.56;;;4.71;83.57
84445;BME280;74683;48.402;10.596;2024-02-04T05:13:49;97491.16;;;4.68;83.83
84445;BME280;74683;48.402;10.596;2024-02-04T05:16:15;97479.75;;;4.66;84.28
84445;BME280;74683;48.402;10.596;2024-02-04T05:18:42;97482.50;;;4.60;84.49
84445;BME280;74683;48.402;10.596;2024-02-04T05:21:09;97483.66;;;4.54;84.34
84445;BME280;74683;48.402;10.596;2024-02-04T05:23:36;97479.94;;;4.45;84.96
84445;BME280;74683;48.402;10.596;2024-02-04T05:26:04;97485.41;;;4.40;85.02
84445;BME280;74683;48.402;10.596;2024-02-04T05:28:31;97485.47;;;4.35;85.46
84445;BME280;74683;48.402;10.596;2024-02-04T05:30:58;97475.69;;;4.29;85.67
84445;BME280;74683;48.402;10.596;2024-02-04T05:33:25;97478.72;;;4.27;85.54
84445;BME280;74683;48.402;10.596;2024-02-04T05:35:51;97488.56;;;4.23;85.92
84445;BME280;74683;48.402;10.596;2024-02-04T05:38:18;97489.88;;;4.26;86.06
84445;BME280;74683;48.402;10.596;2024-02-04T05:40:45;97483.34;;;4.27;85.84
84445;BME280;74683;48.402;10.596;2024-02-04T05:43:12;97482.78;;;4.30;85.33
84445;BME280;74683;48.402;10.596;2024-02-04T05:45:39;97482.25;;;4.28;85.44
84445;BME280;74683;48.402;10.596;2024-02-04T05:48:11;97485.78;;;4.28;85.51
84445;BME280;74683;48.402;10.596;2024-02-04T05:50:37;97474.59;;;4.30;85.83
84445;BME280;74683;48.402;10.596;2024-02-04T05:53:05;97473.50;;;4.31;84.74
84445;BME280;74683;48.402;10.596;2024-02-04T05:55:31;97471.59;;;4.31;85.05
84445;BME280;74683;48.402;10.596;2024-02-04T05:57:58;97467.81;;;4.27;84.91
84445;BME280;74683;48.402;10.596;2024-02-04T06:00:26;97483.13;;;4.23;84.92
84445;BME280;74683;48.402;10.596;2024-02-04T06:02:53;97487.19;;;4.21;85.50
84445;BME280;74683;48.402;10.596;2024-02-04T06:05:19;97489.38;;;4.19;85.06
84445;BME280;74683;48.402;10.596;2024-02-04T06:07:46;97483.44;;;4.17;85.81
84445;BME280;74683;48.402;10.596;2024-02-04T06:10:13;97490.72;;;4.21;85.30
84445;BME280;74683;48.402;10.596;2024-02-04T06:12:39;97501.59;;;4.21;85.58
84445;BME280;74683;48.402;10.596;2024-02-04T06:15:12;97514.38;;;4.26;84.97
84445;BME280;74683;48.402;10.596;2024-02-04T06:17:39;97517.91;;;4.26;85.08
84445;BME280;74683;48.402;10.596;2024-02-04T06:20:06;97519.25;;;4.29;85.10
84445;BME280;74683;48.402;10.596;2024-02-04T06:22:36;97526.31;;;4.30;84.99
84445;BME280;74683;48.402;10.596;2024-02-04T06:25:03;97514.03;;;4.32;85.25
84445;BME280;74683;48.402;10.596;2024-02-04T06:27:30;97521.91;;;4.39;85.06
84445;BME280;74683;48.402;10.596;2024-02-04T06:29:57;97517.25;;;4.45;84.80
84445;BME280;74683;48.402;10.596;2024-02-04T06:32:24;97515.63;;;4.44;84.50
84445;BME280;74683;48.402;10.596;2024-02-04T06:34:51;97506.06;;;4.46;84.70
84445;BME280;74683;48.402;10.596;2024-02-04T06:37:18;97519.09;;;4.49;84.82
84445;BME280;74683;48.402;10.596;2024-02-04T06:39:45;97523.72;;;4.49;83.90
84445;BME280;74683;48.402;10.596;2024-02-04T06:42:11;97511.75;;;4.50;84.16
84445;BME280;74683;48.402;10.596;2024-02-04T06:44:38;97516.34;;;4.54;84.34
84445;BME280;74683;48.402;10.596;2024-02-04T06:47:08;97510.91;;;4.54;84.71
84445;BME280;74683;48.402;10.596;2024-02-04T06:49:35;97509.28;;;4.53;84.26
84445;BME280;74683;48.402;10.596;2024-02-04T06:52:02;97503.03;;;4.53;84.39
84445;BME280;74683;48.402;10.596;2024-02-04T06:54:29;97506.00;;;4.51;84.93
84445;BME280;74683;48.402;10.596;2024-02-04T06:56:55;97491.56;;;4.51;84.66
84445;BME280;74683;48.402;10.596;2024-02-04T06:59:22;97503.56;;;4.50;84.59
84445;BME280;74683;48.402;10.596;2024-02-04T07:01:49;97513.38;;;4.51;84.61
84445;BME280;74683;48.402;10.596;2024-02-04T07:04:16;97512.84;;;4.49;83.87
84445;BME280;74683;48.402;10.596;2024-02-04T07:06:43;97511.50;;;4.46;85.01
84445;BME280;74683;48.402;10.596;2024-02-04T07:09:10;97509.88;;;4.45;84.19
84445;BME280;74683;48.402;10.596;2024-02-04T07:11:37;97498.47;;;4.43;84.55
84445;BME280;74683;48.402;10.596;2024-02-04T07:14:04;97513.44;;;4.41;84.96
84445;BME280;74683;48.402;10.596;2024-02-04T07:16:32;97530.06;;;4.39;84.92
84445;BME280;74683;48.402;10.596;2024-02-04T07:18:59;97521.59;;;4.41;84.33
84445;BME280;74683;48.402;10.596;2024-02-04T07:21:25;97523.53;;;4.40;84.15
84445;BME280;74683;48.402;10.596;2024-02-04T07:23:52;97519.69;;;4.41;84.99
84445;BME280;74683;48.402;10.596;2024-02-04T07:26:21;97526.22;;;4.45;84.31
84445;BME280;74683;48.402;10.596;2024-02-04T07:28:47;97518.06;;;4.45;83.40
84445;BME280;74683;48.402;10.596;2024-02-04T07:31:18;97515.84;;;4.47;83.81
84445;BME280;74683;48.402;10.596;2024-02-04T07:33:45;97514.47;;;4.50;83.65
84445;BME280;74683;48.402;10.596;2024-02-04T07:36:12;97532.16;;;4.52;84.28
84445;BME280;74683;48.402;10.596;2024-02-04T07:38:42;97527.75;;;4.56;84.35
84445;BME280;74683;48.402;10.596;2024-02-04T07:41:08;97522.84;;;4.58;83.86
84445;BME280;74683;48.402;10.596;2024-02-04T07:43:35;97528.81;;;4.60;83.01
84445;BME280;74683;48.402;10.596;2024-02-04T07:46:02;97516.81;;;4.61;83.08
84445;BME280;74683;48.402;10.596;2024-02-04T07:48:31;97518.47;;;4.63;82.95
84445;BME280;74683;48.402;10.596;2024-02-04T07:50:58;97507.50;;;4.68;82.86
84445;BME280;74683;48.402;10.596;2024-02-04T07:53:24;97505.00;;;4.71;82.81
84445;BME280;74683;48.402;10.596;2024-02-04T07:55:51;97501.75;;;4.74;83.00
84445;BME280;74683;48.402;10.596;2024-02-04T07:58:18;97507.72;;;4.76;82.92
84445;BME280;74683;48.402;10.596;2024-02-04T08:00:53;97504.97;;;4.76;82.85
84445;BME280;74683;48.402;10.596;2024-02-04T08:03:20;97507.72;;;4.76;82.76
84445;BME280;74683;48.402;10.596;2024-02-04T08:05:47;97507.38;;;4.83;82.44
84445;BME280;74683;48.402;10.596;2024-02-04T08:08:13;97507.59;;;4.86;82.09
84445;BME280;74683;48.402;10.596;2024-02-04T08:10:40;97498.03;;;4.89;82.90
84445;BME280;74683;48.402;10.596;2024-02-04T08:13:06;97507.22;;;4.98;82.23
84445;BME280;74683;48.402;10.596;2024-02-04T08:15:33;97512.38;;;5.00;82.08
84445;BME280;74683;48.402;10.596;2024-02-04T08:18:00;97512.63;;;5.03;81.46
84445;BME280;74683;48.402;10.596;2024-02-04T08:20:31;97505.56;;;5.02;82.28
84445;BME280;74683;48.402;10.596;2024-02-04T08:22:57;97502.06;;;4.97;82.43
84445;BME280;74683;48.402;10.596;2024-02-04T08:25:25;97505.31;;;4.99;81.88
84445;BME280;74683;48.402;10.596;2024-02-04T08:27:52;97498.41;;;5.06;81.49
84445;BME280;74683;48.402;10.596;2024-02-04T08:30:21;97495.69;;;5.06;81.66
84445;BME280;74683;48.402;10.596;2024-02-04T08:32:48;97491.56;;;5.09;81.16
84445;BME280;74683;48.402;10.596;2024-02-04T08:35:14;97487.19;;;5.13;82.23
84445;BME280;74683;48.402;10.596;2024-02-04T08:37:41;97490.00;;;5.27;80.94
84445;BME280;74683;48.402;10.596;2024-02-04T08:40:08;97485.59;;;5.31;81.03
84445;BME280;74683;48.402;10.596;2024-02-04T08:42:36;97495.31;;;5.42;80.58
84445;BME280;74683;48.402;10.596;2024-02-04T08:45:03;97491.38;;;5.48;79.95
84445;BME280;74683;48.402;10.596;2024-02-04T08:47:29;97503.28;;;5.57;80.17
84445;BME280;74683;48.402;10.596;2024-02-04T08:49:56;97499.41;;;5.63;80.39
84445;BME280;74683;48.402;10.596;2024-02-04T08:52:24;97498.88;;;5.61;79.15
84445;BME280;74683;48.402;10.596;2024-02-04T08:54:51;97507.34;;;5.60;79.75
84445;BME280;74683;48.402;10.596;2024-02-04T08:57:17;97503.22;;;5.62;79.65
84445;BME280;74683;48.402;10.596;2024-02-04T08:59:44;97504.56;;;5.65;80.11
84445;BME280;74683;48.402;10.596;2024-02-04T09:02:10;97499.78;;;5.75;79.85
84445;BME280;74683;48.402;10.596;2024-02-04T09:04:37;97493.16;;;5.82;79.54
84445;BME280;74683;48.402;10.596;2024-02-04T09:07:07;97504.88;;;5.82;79.59
84445;BME280;74683;48.402;10.596;2024-02-04T09:09:34;97503.53;;;5.80;78.79
84445;BME280;74683;48.402;10.596;2024-02-04T09:12:01;97500.97;;;5.88;79.01
84445;BME280;74683;48.402;10.596;2024-02-04T09:14:29;97505.88;;;5.91;79.23
84445;BME280;74683;48.402;10.596;2024-02-04T09:16:56;97493.84;;;5.92;79.15
84445;BME280;74683;48.402;10.596;2024-02-04T09:19:23;97495.78;;;5.92;78.53
84445;BME280;74683;48.402;10.596;2024-02-04T09:21:51;97495.69;;;5.97;79.16
84445;BME280;74683;48.402;10.596;2024-02-04T09:24:18;97492.44;;;5.95;79.26
84445;BME280;74683;48.402;10.596;2024-02-04T09:26:44;97485.81;;;6.01;78.89
84445;BME280;74683;48.402;10.596;2024-02-04T09:29:11;97471.63;;;5.99;79.37
84445;BME280;74683;48.402;10.596;2024-02-04T09:31:38;97476.44;;;6.07;78.50
84445;BME280;74683;48.402;10.596;2024-02-04T09:34:05;97482.56;;;5.99;79.13
84445;BME280;74683;48.402;10.596;2024-02-04T09:36:34;97478.94;;;6.03;78.22
84445;BME280;74683;48.402;10.596;2024-02-04T09:39:09;97486.09;;;5.99;77.94
84445;BME280;74683;48.402;10.596;2024-02-04T09:41:44;97487.34;;;6.07;78.03
84445;BME280;74683;48.402;10.596;2024-02-04T09:44:11;97487.44;;;6.02;78.46
84445;BME280;74683;48.402;10.596;2024-02-04T09:46:40;97492.16;;;5.96;78.54
84445;BME280;74683;48.402;10.596;2024-02-04T09:49:08;97489.13;;;5.98;78.24
84445;BME280;74683;48.402;10.596;2024-02-04T09:51:35;97478.81;;;5.95;79.17
84445;BME280;74683;48.402;10.596;2024-02-04T09:54:04;97494.97;;;5.91;78.37
84445;BME280;74683;48.402;10.596;2024-02-04T09:56:37;97511.97;;;5.83;79.64
84445;BME280;74683;48.402;10.596;2024-02-04T09:59:04;97512.38;;;5.95;79.52
84445;BME280;74683;48.402;10.596;2024-02-04T10:01:31;97525.81;;;6.11;79.28
84445;BME280;74683;48.402;10.596;2024-02-04T10:03:59;97517.22;;;6.17;78.64
84445;BME280;74683;48.402;10.596;2024-02-04T10:06:26;97528.59;;;6.06;78.28
84445;BME280;74683;48.402;10.596;2024-02-04T10:08:53;97529.34;;;6.11;78.85
84445;BME280;74683;48.402;10.596;2024-02-04T10:11:20;97522.69;;;6.17;78.53
84445;BME280;74683;48.402;10.596;2024-02-04T10:13:48;97527.63;;;6.15;77.99
84445;BME280;74683;48.402;10.596;2024-02-04T10:16:16;97514.34;;;6.27;78.38
84445;BME280;74683;48.402;10.596;2024-02-04T10:18:44;97515.31;;;6.37;77.28
84445;BME280;74683;48.402;10.596;2024-02-04T10:21:18;97500.25;;;6.39;77.58
84445;BME280;74683;48.402;10.596;2024-02-04T10:23:47;97501.50;;;6.47;76.95
84445;BME280;74683;48.402;10.596;2024-02-04T10:26:14;97485.88;;;6.66;77.29
84445;BME280;74683;48.402;10.596;2024-02-04T10:28:42;97493.00;;;6.81;76.84
84445;BME280;74683;48.402;10.596;2024-02-04T10:31:10;97489.47;;;6.80;76.00
84445;BME280;74683;48.402;10.596;2024-02-04T10:33:37;97497.38;;;6.82;76.16
84445;BME280;74683;48.402;10.596;2024-02-04T10:36:11;97488.94;;;6.78;76.21
84445;BME280;74683;48.402;10.596;2024-02-04T10:38:37;97486.94;;;6.98;76.35
84445;BME280;74683;48.402;10.596;2024-02-04T10:41:04;97490.16;;;7.18;75.97
84445;BME280;74683;48.402;10.596;2024-02-04T10:43:33;97492.97;;;7.41;74.93
84445;BME280;74683;48.402;10.596;2024-02-04T10:46:24;97486.91;;;7.30;74.47
84445;BME280;74683;48.402;10.596;2024-02-04T10:48:55;97493.38;;;7.34;75.13
84445;BME280;74683;48.402;10.596;2024-02-04T10:51:47;97480.41;;;7.40;73.73
84445;BME280;74683;48.402;10.596;2024-02-04T10:54:31;97474.34;;;7.43;74.49
84445;BME280;74683;48.402;10.596;2024-02-04T10:57:05;97458.41;;;7.45;73.95
84445;BME280;74683;48.402;10.596;2024-02-04T10:59:36;97452.94;;;7.59;74.19
84445;BME280;74683;48.402;10.596;2024-02-04T11:02:05;97450.00;;;7.69;73.91
84445;BME280;74683;48.402;10.596;2024-02-04T11:04:40;97439.34;;;8.03;72.38
84445;BME280;74683;48.402;10.596;2024-02-04T11:07:25;97429.25;;;8.26;71.78
84445;BME280;74683;48.402;10.596;2024-02-04T11:09:52;97428.28;;;8.31;70.84
84445;BME280;74683;48.402;10.596;2024-02-04T11:12:21;97433.63;;;8.14;71.82
84445;BME280;74683;48.402;10.596;2024-02-04T11:14:52;97430.88;;;8.14;71.31
84445;BME280;74683;48.402;10.596;2024-02-04T11:17:57;97431.59;;;8.19;71.27
84445;BME280;74683;48.402;10.596;2024-02-04T11:20:40;97424.50;;;8.18;71.25
84445;BME280;74683;48.402;10.596;2024-02-04T11:23:41;97413.91;;;8.25;71.69
84445;BME280;74683;48.402;10.596;2024-02-04T11:26:10;97413.47;;;8.32;71.21
84445;BME280;74683;48.402;10.596;2024-02-04T11:28:38;97402.34;;;8.28;71.19
84445;BME280;74683;48.402;10.596;2024-02-04T11:31:13;97405.88;;;8.29;71.13
84445;BME280;74683;48.402;10.596;2024-02-04T11:33:40;97406.75;;;8.60;70.94
84445;BME280;74683;48.402;10.596;2024-02-04T11:36:07;97399.88;;;8.72;70.18
84445;BME280;74683;48.402;10.596;2024-02-04T11:38:39;97397.00;;;8.46;70.38
84445;BME280;74683;48.402;10.596;2024-02-04T11:41:06;97387.25;;;8.62;70.05
84445;BME280;74683;48.402;10.596;2024-02-04T11:43:33;97374.81;;;8.56;70.31
84445;BME280;74683;48.402;10.596;2024-02-04T11:46:04;97393.91;;;8.70;69.67
84445;BME280;74683;48.402;10.596;2024-02-04T11:48:35;97369.69;;;9.03;69.21
84445;BME280;74683;48.402;10.596;2024-02-04T11:51:05;97377.88;;;8.94;69.54
84445;BME280;74683;48.402;10.596;2024-02-04T11:53:33;97390.84;;;8.71;69.94
84445;BME280;74683;48.402;10.596;2024-02-04T11:56:00;97386.94;;;8.63;70.44
84445;BME280;74683;48.402;10.596;2024-02-04T11:58:28;97380.91;;;8.84;69.98
84445;BME280;74683;48.402;10.596;2024-02-04T12:00:56;97380.38;;;8.73;70.56
84445;BME280;74683;48.402;10.596;2024-02-04T12:03:35;97368.09;;;9.10;69.35
84445;BME280;74683;48.402;10.596;2024-02-04T12:06:06;97370.25;;;9.31;68.21
84445;BME280;74683;48.402;10.596;2024-02-04T12:08:35;97356.94;;;9.64;67.83
84445;BME280;74683;48.402;10.596;2024-02-04T12:11:02;97329.78;;;9.80;67.05
84445;BME280;74683;48.402;10.596;2024-02-04T12:13:29;97327.19;;;9.92;67.30
84445;BME280;74683;48.402;10.596;2024-02-04T12:15:57;97322.94;;;10.20;65.43
84445;BME280;74683;48.402;10.596;2024-02-04T12:18:23;97345.59;;;10.34;65.35
84445;BME280;74683;48.402;10.596;2024-02-04T12:20:51;97351.91;;;10.35;65.40
84445;BME280;74683;48.402;10.596;2024-02-04T12:23:18;97359.50;;;10.38;64.97
84445;BME280;74683;48.402;10.596;2024-02-04T12:25:45;97371.59;;;10.20;65.37
84445;BME280;74683;48.402;10.596;2024-02-04T12:28:13;97362.09;;;10.17;65.77
84445;BME280;74683;48.402;10.596;2024-02-04T12:30:40;97361.75;;;10.19;65.52
84445;BME280;74683;48.402;10.596;2024-02-04T12:33:06;97354.97;;;10.07;66.18
84445;BME280;74683;48.402;10.596;2024-02-04T12:35:33;97347.69;;;10.12;65.71
84445;BME280;74683;48.402;10.596;2024-02-04T12:38:00;97348.81;;;10.11;66.07
84445;BME280;74683;48.402;10.596;2024-02-04T12:40:31;97332.34;;;10.02;66.44
84445;BME280;74683;48.402;10.596;2024-02-04T12:42:59;97327.63;;;10.20;65.49
84445;BME280;74683;48.402;10.596;2024-02-04T12:45:32;97313.28;;;10.14;65.62
84445;BME280;74683;48.402;10.596;2024-02-04T12:47:59;97307.47;;;10.07;65.92
84445;BME280;74683;48.402;10.596;2024-02-04T12:50:25;97299.69;;;10.09;66.36
84445;BME280;74683;48.402;10.596;2024-02-04T12:53:04;97310.69;;;10.26;65.63
84445;BME280;74683;48.402;10.596;2024-02-04T12:55:33;97306.28;;;10.43;65.29
84445;BME280;74683;48.402;10.596;2024-02-04T12:58:05;97297.97;;;10.60;65.16
84445;BME280;74683;48.402;10.596;2024-02-04T13:00:33;97291.31;;;10.99;64.00
84445;BME280;74683;48.402;10.596;2024-02-04T13:03:02;97312.72;;;11.23;63.00
84445;BME280;74683;48.402;10.596;2024-02-04T13:05:29;97314.00;;;11.46;62.52